Time;durP1;ratioP1;P1;durP2;ratioP2;P2;SDS_P1;SDS_P2;PMS_P1;PMS_P2;Temp;Humidity;BMP_temperature;BMP_pressure;BME280_temperature;BME280_humidity;BME280_pressure;Samples;Min_cycle;Max_cycle;Signal;HPM_P1;HPM_P2
2023/09/04 00:00:03;;;;;;;18.05;12.13;;;;;;;15.77;100.00;102659.09;5193885;28;20087;-71
2023/09/04 00:02:34;;;;;;;23.30;13.43;;;;;;;15.74;100.00;102660.22;5204081;28;20025;-71
2023/09/04 00:05:05;;;;;;;19.60;12.43;;;;;;;15.71;100.00;102654.28;5195653;28;20088;-72
2023/09/04 00:07:35;;;;;;;21.65;12.48;;;;;;;15.69;100.00;102659.84;5201216;28;20017;-72
2023/09/04 00:10:06;;;;;;;21.27;14.00;;;;;;;15.69;100.00;102650.88;5204036;28;20443;-71
2023/09/04 00:12:37;;;;;;;21.60;12.50;;;;;;;15.69;100.00;102648.19;5204278;28;20036;-71
2023/09/04 00:15:07;;;;;;;21.38;13.57;;;;;;;15.66;100.00;102652.06;5203890;28;20521;-71
2023/09/04 00:17:38;;;;;;;20.90;13.93;;;;;;;15.66;100.00;102652.06;5203599;28;20036;-71
2023/09/04 00:20:11;;;;;;;22.83;13.73;;;;;;;15.67;100.00;102644.81;5204026;28;20018;-72
2023/09/04 00:22:42;;;;;;;19.80;12.45;;;;;;;15.65;100.00;102647.63;5203301;28;20029;-71
2023/09/04 00:25:12;;;;;;;21.67;13.73;;;;;;;15.63;100.00;102651.50;5203576;28;20083;-71
2023/09/04 00:27:43;;;;;;;26.67;14.45;;;;;;;15.62;100.00;102649.78;5203201;28;20025;-71
2023/09/04 00:30:13;;;;;;;27.40;15.77;;;;;;;15.59;100.00;102647.38;5203720;28;20483;-71
2023/09/04 00:32:44;;;;;;;22.80;14.07;;;;;;;15.57;100.00;102644.00;5204303;28;20029;-71
2023/09/04 00:35:14;;;;;;;25.08;14.27;;;;;;;15.57;100.00;102649.41;5202391;28;20026;-71
2023/09/04 00:37:45;;;;;;;25.58;15.25;;;;;;;15.52;100.00;102645.31;5203512;28;20082;-71
2023/09/04 00:40:15;;;;;;;26.30;14.48;;;;;;;15.50;100.00;102643.75;5203310;28;20029;-71
2023/09/04 00:42:46;;;;;;;28.75;15.50;;;;;;;15.49;100.00;102642.06;5203589;28;20057;-71
2023/09/04 00:45:16;;;;;;;28.77;15.80;;;;;;;15.46;100.00;102640.53;5203506;28;20431;-71
2023/09/04 00:47:47;;;;;;;21.60;14.65;;;;;;;15.45;100.00;102632.53;5203098;28;20029;-71
2023/09/04 00:50:22;;;;;;;24.02;14.75;;;;;;;15.40;100.00;102640.28;5203609;28;20236;-71
2023/09/04 00:52:58;;;;;;;28.48;15.73;;;;;;;15.38;100.00;102642.28;5203819;28;20017;-71
2023/09/04 00:55:28;;;;;;;22.02;14.20;;;;;;;15.34;100.00;102641.75;5203435;28;20021;-71
2023/09/04 00:57:59;;;;;;;26.63;15.50;;;;;;;15.31;100.00;102639.34;5202806;28;20024;-71
2023/09/04 01:00:30;;;;;;;27.63;15.05;;;;;;;15.28;100.00;102634.25;5203625;28;20375;-71
2023/09/04 01:03:02;;;;;;;27.60;15.32;;;;;;;15.26;100.00;102639.81;5203585;28;20029;-71
2023/09/04 01:05:33;;;;;;;24.77;15.35;;;;;;;15.22;100.00;102646.53;5189009;28;20030;-71
2023/09/04 01:08:04;;;;;;;30.20;17.00;;;;;;;15.21;100.00;102639.44;5183133;28;20033;-71
2023/09/04 01:10:46;;;;;;;27.52;16.85;;;;;;;15.16;100.00;102644.47;5198964;28;20037;-71
2023/09/04 01:13:28;;;;;;;30.23;17.23;;;;;;;15.14;100.00;102635.63;5192077;28;20017;-71
2023/09/04 01:16:00;;;;;;;27.45;17.13;;;;;;;15.09;100.00;102627.13;5183612;28;20036;-71
2023/09/04 01:18:32;;;;;;;28.77;18.17;;;;;;;15.06;100.00;102626.56;5197232;28;20079;-71
2023/09/04 01:21:04;;;;;;;32.35;17.88;;;;;;;15.03;100.00;102627.75;5195577;28;20032;-71
2023/09/04 01:23:50;;;;;;;32.97;17.77;;;;;;;15.00;100.00;102628.03;5185282;28;20361;-72
2023/09/04 01:26:31;;;;;;;29.08;17.00;;;;;;;14.99;100.00;102631.75;5195034;28;20021;-72
2023/09/04 01:29:28;;;;;;;35.53;19.10;;;;;;;14.98;100.00;102628.19;5183900;28;20026;-71
2023/09/04 01:32:10;;;;;;;34.35;18.48;;;;;;;14.98;100.00;102609.28;5184942;28;20037;-71
2023/09/04 01:34:48;;;;;;;33.53;18.50;;;;;;;14.99;100.00;102612.81;5183298;28;20522;-71
2023/09/04 01:37:19;;;;;;;34.92;18.17;;;;;;;14.99;100.00;102604.72;5181947;28;20038;-72
2023/09/04 01:39:52;;;;;;;30.23;17.92;;;;;;;14.98;100.00;102603.88;5199107;28;20036;-72
2023/09/04 01:42:23;;;;;;;27.65;17.30;;;;;;;14.95;100.00;102596.06;5193089;28;20034;-72
2023/09/04 01:44:53;;;;;;;32.85;18.65;;;;;;;14.94;100.00;102598.94;5183827;28;20028;-71
2023/09/04 01:47:24;;;;;;;29.90;17.83;;;;;;;14.90;100.00;102594.81;5182981;28;20103;-71
2023/09/04 01:49:54;;;;;;;32.95;17.95;;;;;;;14.83;100.00;102583.78;5195643;28;20361;-71
2023/09/04 01:52:25;;;;;;;32.90;19.42;;;;;;;14.76;100.00;102588.94;5183501;28;20045;-71
2023/09/04 01:54:55;;;;;;;27.80;17.17;;;;;;;14.71;100.00;102582.31;5184314;28;20064;-71
2023/09/04 01:57:26;;;;;;;30.70;17.48;;;;;;;14.62;100.00;102585.91;5182825;28;20041;-71
2023/09/04 01:59:56;;;;;;;30.55;16.90;;;;;;;14.56;100.00;102578.38;5202746;28;20523;-73
2023/09/04 02:02:27;;;;;;;29.63;18.38;;;;;;;14.49;100.00;102575.44;5202472;28;20036;-73
2023/09/04 02:04:58;;;;;;;27.75;17.52;;;;;;;14.42;100.00;102575.16;5195036;28;20014;-73
2023/09/04 02:07:29;;;;;;;31.75;17.35;;;;;;;14.38;100.00;102572.91;5198455;28;20018;-73
2023/09/04 02:10:00;;;;;;;31.40;15.98;;;;;;;14.32;100.00;102574.38;5201968;28;20033;-73
2023/09/04 02:12:30;;;;;;;24.10;15.48;;;;;;;14.30;100.00;102578.19;5202627;28;20040;-73
2023/09/04 02:15:01;;;;;;;29.35;16.05;;;;;;;14.22;100.00;102569.00;5202508;28;20037;-73
2023/09/04 02:17:31;;;;;;;32.90;18.42;;;;;;;14.21;100.00;102575.41;5202189;28;20025;-72
2023/09/04 02:20:04;;;;;;;42.05;21.30;;;;;;;14.23;100.00;102572.56;5202678;28;20463;-73
2023/09/04 02:22:35;;;;;;;38.83;20.35;;;;;;;14.22;100.00;102574.41;5195538;28;20022;-73
2023/09/04 02:25:07;;;;;;;33.55;18.92;;;;;;;14.22;100.00;102565.47;5182990;28;20030;-72
2023/09/04 02:27:37;;;;;;;34.75;18.55;;;;;;;14.21;100.00;102564.59;5182467;28;20025;-72
2023/09/04 02:30:08;;;;;;;32.65;18.00;;;;;;;14.20;100.00;102565.59;5183222;28;20026;-71
2023/09/04 02:32:39;;;;;;;33.67;18.52;;;;;;;14.19;100.00;102566.59;5182151;28;20056;-72
2023/09/04 02:35:10;;;;;;;31.33;17.90;;;;;;;14.17;100.00;102565.91;5182301;28;20088;-72
2023/09/04 02:37:42;;;;;;;33.88;19.35;;;;;;;14.16;100.00;102561.50;5182072;28;20030;-71
2023/09/04 02:40:13;;;;;;;34.35;17.92;;;;;;;14.13;100.00;102563.63;5182919;28;20089;-72
2023/09/04 02:42:43;;;;;;;32.67;17.75;;;;;;;14.11;100.00;102560.25;5182960;28;20039;-71
2023/09/04 02:45:14;;;;;;;35.65;18.60;;;;;;;14.01;100.00;102560.28;5182286;28;20021;-71
2023/09/04 02:47:45;;;;;;;35.65;18.67;;;;;;;13.91;100.00;102552.22;5197882;28;20134;-72
2023/09/04 02:50:17;;;;;;;38.13;19.15;;;;;;;13.80;100.00;102546.13;5185248;28;20087;-72
2023/09/04 02:52:48;;;;;;;37.25;21.17;;;;;;;13.73;100.00;102570.16;5187662;28;20444;-72
2023/09/04 02:55:18;;;;;;;34.30;18.38;;;;;;;13.68;100.00;102559.78;5197815;28;20033;-71
2023/09/04 02:57:48;;;;;;;34.90;18.65;;;;;;;13.66;100.00;102560.94;5195988;28;20041;-72
2023/09/04 03:00:19;;;;;;;66.03;18.65;;;;;;;13.59;100.00;102568.75;5197796;28;20018;-71
2023/09/04 03:02:50;;;;;;;40.13;14.20;;;;;;;13.50;100.00;102564.22;5205779;28;20032;-71
2023/09/04 03:05:20;;;;;;;26.92;13.63;;;;;;;13.40;100.00;102560.66;5195321;28;20064;-71
2023/09/04 03:07:51;;;;;;;30.80;17.27;;;;;;;13.34;100.00;102563.94;5205612;28;20029;-71
2023/09/04 03:10:21;;;;;;;24.27;13.82;;;;;;;13.29;100.00;102574.31;5205594;28;20402;-71
2023/09/04 03:12:52;;;;;;;29.20;14.90;;;;;;;13.24;100.00;102579.25;5204612;28;20029;-71
2023/09/04 03:15:22;;;;;;;24.35;14.40;;;;;;;13.24;100.00;102571.19;5204362;28;20056;-71
2023/09/04 03:17:53;;;;;;;27.63;16.40;;;;;;;13.23;100.00;102586.50;5205067;28;20025;-71
2023/09/04 03:20:23;;;;;;;33.70;18.35;;;;;;;13.19;100.00;102576.97;5205720;28;20037;-71
2023/09/04 03:22:54;;;;;;;34.58;17.77;;;;;;;13.12;100.00;102573.13;5205132;28;20471;-71
2023/09/04 03:25:24;;;;;;;35.88;17.98;;;;;;;13.07;100.00;102573.56;5205549;28;20029;-71
2023/09/04 03:27:55;;;;;;;27.75;16.42;;;;;;;13.06;100.00;102573.72;5205455;28;20029;-71
2023/09/04 03:30:25;;;;;;;25.45;14.88;;;;;;;13.03;100.00;102569.44;5205554;28;20036;-71
2023/09/04 03:32:56;;;;;;;23.23;13.40;;;;;;;13.00;100.00;102574.25;5205188;28;20040;-71
2023/09/04 03:35:26;;;;;;;23.27;12.85;;;;;;;12.95;100.00;102572.84;5205340;28;20416;-71
2023/09/04 03:37:57;;;;;;;26.55;13.75;;;;;;;12.89;100.00;102573.38;5204723;28;20028;-71
2023/09/04 03:40:29;;;;;;;29.23;15.98;;;;;;;12.86;100.00;102575.53;5205671;28;20028;-71
2023/09/04 03:42:59;;;;;;;25.88;15.35;;;;;;;12.84;100.00;102577.50;5205244;28;20017;-71
2023/09/04 03:45:33;;;;;;;25.45;13.73;;;;;;;12.80;100.00;102567.97;5204938;28;20036;-71
2023/09/04 03:48:04;;;;;;;25.52;14.80;;;;;;;12.80;100.00;102571.56;5204635;28;20025;-71
2023/09/04 03:50:35;;;;;;;33.08;16.92;;;;;;;12.80;100.00;102573.38;5205223;28;20063;-71
2023/09/04 03:53:06;;;;;;;29.05;15.63;;;;;;;12.78;100.00;102572.66;5205259;28;20115;-71
2023/09/04 03:55:37;;;;;;;37.65;18.83;;;;;;;12.76;100.00;102578.19;5205016;28;20429;-71
2023/09/04 03:58:07;;;;;;;37.20;18.15;;;;;;;12.74;100.00;102582.00;5204228;28;20021;-71
2023/09/04 04:00:38;;;;;;;36.50;18.98;;;;;;;12.67;100.00;102579.03;5204947;28;20021;-71
2023/09/04 04:03:08;;;;;;;38.63;20.80;;;;;;;12.62;100.00;102576.75;5205212;28;20474;-71
2023/09/04 04:05:39;;;;;;;36.35;19.25;;;;;;;12.60;100.00;102580.53;5194045;28;20029;-71
2023/09/04 04:08:10;;;;;;;27.15;15.52;;;;;;;12.57;100.00;102587.06;5204598;28;20052;-71
2023/09/04 04:10:40;;;;;;;29.60;16.65;;;;;;;12.55;100.00;102580.09;5204022;28;20395;-71
2023/09/04 04:13:11;;;;;;;31.30;16.48;;;;;;;12.48;100.00;102587.88;5204789;28;20025;-71
2023/09/04 04:15:41;;;;;;;29.80;17.27;;;;;;;12.47;100.00;102579.97;5204148;28;20025;-71
2023/09/04 04:18:12;;;;;;;31.75;16.60;;;;;;;12.41;100.00;102581.34;5204567;28;20022;-71
2023/09/04 04:20:42;;;;;;;30.63;16.48;;;;;;;12.39;100.00;102578.78;5204622;28;20410;-71
2023/09/04 04:23:13;;;;;;;30.77;16.98;;;;;;;12.40;100.00;102582.34;5204061;28;20425;-72
2023/09/04 04:25:44;;;;;;;36.00;18.35;;;;;;;12.37;100.00;102577.22;5204294;28;20037;-72
2023/09/04 04:28:15;;;;;;;30.67;15.40;;;;;;;12.37;100.00;102571.84;5204386;28;20057;-72
2023/09/04 04:30:46;;;;;;;31.60;16.63;;;;;;;12.32;100.00;102571.41;5204484;28;20031;-71
2023/09/04 04:33:16;;;;;;;37.30;19.10;;;;;;;12.32;100.00;102571.41;5204361;28;20029;-71
2023/09/04 04:35:52;;;;;;;37.28;16.85;;;;;;;12.29;100.00;102563.59;5203488;28;20073;-72
2023/09/04 04:38:22;;;;;;;31.20;16.77;;;;;;;12.28;100.00;102565.44;5204376;28;20028;-71
2023/09/04 04:40:56;;;;;;;28.80;16.80;;;;;;;12.27;100.00;102568.25;5204212;28;20026;-72
2023/09/04 04:43:26;;;;;;;32.53;17.20;;;;;;;12.25;100.00;102572.91;5204196;28;20486;-72
2023/09/04 04:45:56;;;;;;;30.02;17.10;;;;;;;12.23;100.00;102578.44;5203626;28;20034;-71
2023/09/04 04:48:27;;;;;;;35.30;17.10;;;;;;;12.21;100.00;102585.81;5203782;28;20028;-72
2023/09/04 04:50:57;;;;;;;35.10;17.92;;;;;;;12.18;100.00;102584.22;5203939;28;20429;-72
2023/09/04 04:53:28;;;;;;;38.53;19.98;;;;;;;12.15;100.00;102595.28;5204106;28;20041;-72
2023/09/04 04:55:59;;;;;;;33.28;18.13;;;;;;;12.14;100.00;102596.22;5203218;28;20117;-72
2023/09/04 04:58:30;;;;;;;31.38;17.50;;;;;;;12.13;100.00;102588.31;5203437;28;20025;-71
2023/09/04 05:01:00;;;;;;;40.05;16.10;;;;;;;12.12;100.00;102589.28;5203784;28;20020;-72
2023/09/04 05:03:31;;;;;;;31.17;16.58;;;;;;;12.09;100.00;102590.41;5203756;28;20025;-71
2023/09/04 05:06:02;;;;;;;175.52;14.30;;;;;;;12.03;100.00;102590.09;5192194;28;20483;-72
2023/09/04 05:08:33;;;;;;;27.25;11.77;;;;;;;11.99;100.00;102583.28;5203247;28;20056;-72
2023/09/04 05:11:05;;;;;;;28.50;14.07;;;;;;;11.96;100.00;102589.78;5201423;28;20030;-72
2023/09/04 05:13:35;;;;;;;22.48;12.68;;;;;;;11.99;100.00;102578.75;5203447;28;20040;-72
2023/09/04 05:16:06;;;;;;;25.08;14.48;;;;;;;12.01;100.00;102584.00;5202943;28;20021;-72
2023/09/04 05:18:37;;;;;;;23.88;13.07;;;;;;;12.02;100.00;102570.41;5203540;28;20021;-72
2023/09/04 05:21:08;;;;;;;21.17;12.77;;;;;;;12.04;100.00;102564.88;5203934;28;20478;-72
2023/09/04 05:23:38;;;;;;;18.75;11.25;;;;;;;12.04;100.00;102564.88;5203142;28;20068;-72
2023/09/04 05:26:09;;;;;;;20.02;11.98;;;;;;;12.04;100.00;102554.97;5201138;28;20036;-72
2023/09/04 05:28:40;;;;;;;21.98;12.05;;;;;;;12.06;100.00;102557.56;5186991;28;20033;-72
2023/09/04 05:31:10;;;;;;;19.85;12.43;;;;;;;12.11;100.00;102563.38;5194088;28;20394;-73
2023/09/04 05:33:41;;;;;;;18.80;11.30;;;;;;;12.16;100.00;102571.91;5203093;28;20056;-72
2023/09/04 05:36:11;;;;;;;21.55;12.27;;;;;;;12.21;100.00;102568.81;5202898;28;20033;-71
2023/09/04 05:38:42;;;;;;;27.88;14.93;;;;;;;12.27;100.00;102565.56;5203099;28;20022;-72
2023/09/04 05:41:13;;;;;;;34.92;16.70;;;;;;;12.33;100.00;102559.66;5203072;28;20055;-72
2023/09/04 05:43:44;;;;;;;28.80;16.40;;;;;;;12.38;100.00;102555.56;5203072;28;20126;-72
2023/09/04 05:46:14;;;;;;;30.85;17.58;;;;;;;12.46;100.00;102549.50;5202526;28;20104;-72
2023/09/04 05:48:45;;;;;;;28.35;14.43;;;;;;;12.53;100.00;102555.19;5206142;28;20033;-72
2023/09/04 05:51:15;;;;;;;27.85;15.70;;;;;;;12.56;100.00;102545.00;5203390;28;20055;-72
2023/09/04 05:53:46;;;;;;;23.55;13.98;;;;;;;12.64;100.00;102545.13;5203084;28;20103;-71
2023/09/04 05:56:17;;;;;;;32.55;17.15;;;;;;;12.79;100.00;102547.44;5202419;28;20028;-72
2023/09/04 05:58:49;;;;;;;24.30;14.20;;;;;;;13.03;100.00;102545.19;5190146;28;20347;-72
2023/09/04 06:01:20;;;;;;;25.63;13.38;;;;;;;13.30;100.00;102554.44;5203002;28;20119;-72
2023/09/04 06:03:51;;;;;;;28.75;14.65;;;;;;;13.51;100.00;102548.91;5202981;28;20025;-72
2023/09/04 06:06:21;;;;;;;30.85;16.33;;;;;;;13.89;100.00;102550.66;5191787;28;20028;-72
2023/09/04 06:08:52;;;;;;;24.20;12.98;;;;;;;14.26;100.00;102547.97;5202323;28;20029;-73
2023/09/04 06:11:22;;;;;;;23.75;14.15;;;;;;;14.60;100.00;102540.13;5202505;28;20022;-73
2023/09/04 06:13:53;;;;;;;28.55;15.88;;;;;;;14.99;100.00;102539.84;5202641;28;20025;-73
2023/09/04 06:16:23;;;;;;;28.73;17.75;;;;;;;15.50;100.00;102540.97;5202339;28;20032;-73
2023/09/04 06:18:54;;;;;;;31.92;16.73;;;;;;;15.89;100.00;102546.84;5202636;28;20029;-74
2023/09/04 06:21:24;;;;;;;37.45;18.92;;;;;;;16.32;100.00;102539.63;5203827;28;20024;-73
2023/09/04 06:23:55;;;;;;;33.83;18.50;;;;;;;16.77;100.00;102549.31;5206622;28;20025;-73
2023/09/04 06:26:25;;;;;;;27.52;16.55;;;;;;;17.20;100.00;102548.16;5206514;28;20041;-73
2023/09/04 06:28:56;;;;;;;27.52;17.00;;;;;;;17.54;100.00;102549.84;5206827;28;20033;-72
2023/09/04 06:31:26;;;;;;;29.77;17.63;;;;;;;17.69;100.00;102545.44;5206843;28;20099;-72
2023/09/04 06:33:57;;;;;;;28.88;17.50;;;;;;;17.80;100.00;102544.25;5206665;28;20021;-72
2023/09/04 06:36:27;;;;;;;25.20;17.30;;;;;;;17.87;100.00;102545.25;5205938;28;20393;-72
2023/09/04 06:38:58;;;;;;;25.95;16.30;;;;;;;18.01;100.00;102540.97;5206733;28;20317;-72
2023/09/04 06:41:29;;;;;;;30.88;17.50;;;;;;;18.22;100.00;102546.66;5206752;28;20037;-72
2023/09/04 06:43:59;;;;;;;27.70;16.85;;;;;;;18.33;100.00;102549.00;5206850;28;20048;-72
2023/09/04 06:46:30;;;;;;;28.63;16.55;;;;;;;18.48;100.00;102557.28;5206340;28;20026;-73
2023/09/04 06:49:00;;;;;;;30.25;17.20;;;;;;;18.65;100.00;102549.88;5206471;28;20056;-72
2023/09/04 06:51:31;;;;;;;24.30;16.52;;;;;;;19.01;100.00;102549.34;5206469;28;20022;-72
2023/09/04 06:54:03;;;;;;;25.52;16.23;;;;;;;19.35;100.00;102544.31;5206694;28;20021;-73
2023/09/04 06:56:34;;;;;;;24.15;16.20;;;;;;;19.62;100.00;102539.31;5205663;28;20104;-73
2023/09/04 06:59:04;;;;;;;28.75;16.48;;;;;;;19.94;100.00;102534.59;5192987;28;20113;-72
2023/09/04 07:01:35;;;;;;;25.80;16.75;;;;;;;20.10;100.00;102535.25;5206560;28;20437;-73
2023/09/04 07:04:06;;;;;;;24.85;16.23;;;;;;;20.27;100.00;102527.69;5205943;28;20025;-73
2023/09/04 07:06:37;;;;;;;25.23;16.15;;;;;;;20.44;100.00;102529.19;5206000;28;20044;-73
2023/09/04 07:09:07;;;;;;;27.25;16.63;;;;;;;20.42;100.00;102531.25;5205939;28;20532;-72
2023/09/04 07:11:38;;;;;;;26.58;17.08;;;;;;;20.35;100.00;102541.22;5206212;28;20033;-73
2023/09/04 07:14:09;;;;;;;23.13;15.35;;;;;;;20.38;100.00;102534.53;5205568;28;20052;-73
2023/09/04 07:16:40;;;;;;;28.60;16.50;;;;;;;20.36;100.00;102533.91;5205759;28;20056;-73
2023/09/04 07:19:10;;;;;;;28.90;17.35;;;;;;;20.55;100.00;102535.22;5205616;28;20021;-73
2023/09/04 07:21:40;;;;;;;26.52;16.23;;;;;;;20.87;100.00;102542.91;5205528;28;20085;-73
2023/09/04 07:24:11;;;;;;;25.27;16.95;;;;;;;21.29;100.00;102537.69;5205605;28;20200;-73
2023/09/04 07:26:41;;;;;;;23.35;16.48;;;;;;;21.50;100.00;102534.94;5204729;28;20397;-73
2023/09/04 07:29:12;;;;;;;23.02;16.92;;;;;;;21.81;100.00;102533.69;5205603;28;20039;-73
2023/09/04 07:31:42;;;;;;;23.25;15.57;;;;;;;22.07;100.00;102522.91;5205220;28;20036;-73
2023/09/04 07:34:13;;;;;;;23.63;16.08;;;;;;;22.27;100.00;102533.97;5205191;28;20048;-73
2023/09/04 07:36:44;;;;;;;26.88;15.20;;;;;;;22.49;100.00;102527.34;5203392;28;20038;-73
2023/09/04 07:39:14;;;;;;;21.75;14.60;;;;;;;22.72;100.00;102542.56;5205435;28;20083;-73
2023/09/04 07:41:44;;;;;;;23.52;15.05;;;;;;;22.92;100.00;102542.63;5205199;28;20017;-73
2023/09/04 07:44:15;;;;;;;22.25;14.52;;;;;;;23.04;100.00;102537.38;5205580;28;20040;-73
2023/09/04 07:46:45;;;;;;;23.25;16.00;;;;;;;23.19;100.00;102538.91;5204233;28;20371;-73
2023/09/04 07:49:16;;;;;;;21.17;13.35;;;;;;;23.23;100.00;102536.56;5204469;28;20025;-73
2023/09/04 07:51:47;;;;;;;20.15;13.68;;;;;;;23.45;100.00;102538.06;5205104;28;20084;-73
2023/09/04 07:54:17;;;;;;;24.95;15.30;;;;;;;23.73;100.00;102535.09;5205080;28;20165;-73
2023/09/04 07:56:47;;;;;;;22.30;14.10;;;;;;;23.59;100.00;102529.81;5205072;28;20032;-73
2023/09/04 07:59:18;;;;;;;24.52;14.80;;;;;;;23.65;100.00;102532.59;5191063;28;20025;-73
2023/09/04 08:01:48;;;;;;;23.02;13.75;;;;;;;23.99;100.00;102533.38;5205289;28;20463;-73
2023/09/04 08:04:19;;;;;;;20.63;13.30;;;;;;;24.25;100.00;102522.34;5203193;28;20185;-73
2023/09/04 08:06:49;;;;;;;18.77;12.77;;;;;;;24.40;100.00;102521.22;5196419;28;20040;-73
2023/09/04 08:09:20;;;;;;;20.08;13.57;;;;;;;24.68;100.00;102513.47;5204580;28;20099;-74
2023/09/04 08:11:51;;;;;;;19.30;13.52;;;;;;;24.69;100.00;102517.06;5205179;28;20049;-74
2023/09/04 08:14:21;;;;;;;18.60;12.57;;;;;;;24.95;100.00;102524.28;5188116;28;20072;-74
2023/09/04 08:16:52;;;;;;;18.02;13.48;;;;;;;25.21;100.00;102523.31;5185101;28;20104;-73
2023/09/04 08:19:22;;;;;;;21.23;13.15;;;;;;;25.39;100.00;102520.59;5203671;28;20021;-73
2023/09/04 08:21:53;;;;;;;17.90;13.15;;;;;;;25.47;100.00;102528.56;5203321;28;20014;-73
2023/09/04 08:24:24;;;;;;;19.00;12.35;;;;;;;25.48;100.00;102529.41;5202815;28;20034;-74
2023/09/04 08:26:54;;;;;;;17.92;12.63;;;;;;;25.34;100.00;102523.19;5201691;28;20025;-74
2023/09/04 08:29:25;;;;;;;17.98;12.85;;;;;;;25.83;100.00;102516.81;5202835;28;20032;-74
2023/09/04 08:31:55;;;;;;;20.52;12.15;;;;;;;25.82;100.00;102522.56;5202868;28;20018;-74
2023/09/04 08:34:25;;;;;;;22.95;11.88;;;;;;;25.91;100.00;102517.59;5202367;28;20033;-74
2023/09/04 08:36:56;;;;;;;15.23;11.32;;;;;;;26.49;100.00;102517.13;5202245;28;20402;-74
2023/09/04 08:39:26;;;;;;;18.10;12.43;;;;;;;26.12;100.00;102524.56;5201988;28;20025;-74
2023/09/04 08:41:57;;;;;;;16.73;11.40;;;;;;;25.79;100.00;102520.25;5201542;28;20017;-73
2023/09/04 08:44:29;;;;;;;18.70;11.95;;;;;;;25.80;100.00;102521.91;5201584;28;20045;-73
2023/09/04 08:47:00;;;;;;;17.08;11.07;;;;;;;25.85;100.00;102519.31;5201878;28;20029;-73
2023/09/04 08:49:30;;;;;;;16.50;11.00;;;;;;;25.86;100.00;102520.19;5201380;28;20395;-73
2023/09/04 08:52:01;;;;;;;15.95;10.90;;;;;;;26.06;100.00;102523.56;5191783;28;20048;-73
2023/09/04 08:54:34;;;;;;;15.68;10.93;;;;;;;26.26;100.00;102526.91;5192087;28;20549;-74
2023/09/04 08:57:04;;;;;;;17.77;11.52;;;;;;;26.29;100.00;102518.19;5195498;28;20025;-74
2023/09/04 08:59:35;;;;;;;15.13;10.63;;;;;;;26.34;100.00;102521.06;5188361;28;20084;-73
2023/09/04 09:02:13;;;;;;;13.65;10.93;;;;;;;26.52;100.00;102519.41;5189649;28;20067;-73
2023/09/04 09:04:43;;;;;;;13.55;10.45;;;;;;;26.75;100.00;102518.66;5193808;28;20204;-73
2023/09/04 09:07:14;;;;;;;15.65;11.02;;;;;;;26.78;100.00;102518.19;5189027;28;20025;-73
2023/09/04 09:09:50;;;;;;;13.35;9.55;;;;;;;26.96;100.00;102518.13;5188951;28;20025;-73
2023/09/04 09:12:20;;;;;;;19.75;10.20;;;;;;;27.07;100.00;102517.34;5192344;28;20064;-73
2023/09/04 09:14:52;;;;;;;15.63;10.20;;;;;;;27.25;100.00;102512.81;5194505;28;20017;-74
2023/09/04 09:17:23;;;;;;;16.40;9.63;;;;;;;27.01;100.00;102515.50;5182596;28;20086;-74
2023/09/04 09:19:53;;;;;;;12.40;8.00;;;;;;;26.89;100.00;102508.28;5193649;28;20029;-73
2023/09/04 09:22:24;;;;;;;13.25;8.27;;;;;;;26.95;100.00;102507.34;5189675;28;20030;-73
2023/09/04 09:24:59;;;;;;;30.75;16.42;;;;;;;27.06;100.00;102501.88;5191749;28;20082;-74
2023/09/04 09:27:32;;;;;;;14.55;8.00;;;;;;;27.23;100.00;102501.19;5192841;28;20560;-73
2023/09/04 09:30:03;;;;;;;60.42;23.35;;;;;;;27.20;100.00;102498.91;5193855;28;20033;-73
2023/09/04 09:32:33;;;;;;;9.38;6.78;;;;;;;27.22;100.00;102499.53;5188896;28;20022;-74
2023/09/04 09:35:05;;;;;;;11.85;7.63;;;;;;;26.95;100.00;102499.06;5188851;28;20045;-74
2023/09/04 09:37:36;;;;;;;14.60;8.38;;;;;;;26.92;100.00;102486.63;5184167;28;20028;-74
2023/09/04 09:40:09;;;;;;;13.05;7.65;;;;;;;26.66;100.00;102493.38;5192514;28;20013;-73
2023/09/04 09:42:41;;;;;;;13.98;8.90;;;;;;;26.59;100.00;102485.22;5186814;28;20029;-73
2023/09/04 09:45:12;;;;;;;9.73;6.60;;;;;;;26.58;100.00;102479.94;5185380;28;20037;-73
2023/09/04 09:47:42;;;;;;;9.13;6.93;;;;;;;26.50;100.00;102483.84;5191681;28;20033;-73
2023/09/04 09:50:14;;;;;;;13.82;9.20;;;;;;;26.39;100.00;102481.88;5186950;28;20033;-73
2023/09/04 09:52:57;;;;;;;10.02;6.88;;;;;;;26.58;100.00;102472.53;5185038;28;20711;-73
2023/09/04 09:55:30;;;;;;;10.95;8.25;;;;;;;26.65;100.00;102472.41;5185566;28;20117;-73
2023/09/04 09:58:01;;;;;;;13.00;7.50;;;;;;;26.79;100.00;102470.31;5185846;28;20356;-74
2023/09/04 10:00:34;;;;;;;11.40;7.50;;;;;;;27.00;100.00;102469.75;5186766;28;20281;-74
2023/09/04 10:03:05;;;;;;;13.73;6.70;;;;;;;27.03;100.00;102472.03;5191076;28;20026;-73
2023/09/04 10:05:36;;;;;;;11.07;6.50;;;;;;;26.96;100.00;102462.19;5189742;28;20092;-74
2023/09/04 10:08:08;;;;;;;11.10;6.13;;;;;;;26.98;100.00;102465.56;5183645;28;20083;-73
2023/09/04 10:10:42;;;;;;;7.85;5.60;;;;;;;26.95;100.00;102463.28;5186383;28;20401;-73
2023/09/04 10:13:19;;;;;;;8.43;6.05;;;;;;;26.98;100.00;102455.38;5189367;28;20049;-74
2023/09/04 10:15:52;;;;;;;10.30;5.80;;;;;;;27.14;100.00;102456.63;5184576;28;20072;-74
2023/09/04 10:18:29;;;;;;;13.27;6.30;;;;;;;27.18;100.00;102455.06;5191349;28;20080;-74
2023/09/04 10:21:03;;;;;;;11.40;6.00;;;;;;;26.94;100.00;102450.59;5190767;28;20017;-74
2023/09/04 10:23:43;;;;;;;8.73;5.07;;;;;;;26.87;100.00;102449.88;5186667;28;20030;-74
2023/09/04 10:26:22;;;;;;;7.00;5.20;;;;;;;26.76;100.00;102448.78;5183696;28;20053;-73
2023/09/04 10:29:01;;;;;;;6.95;4.85;;;;;;;26.94;100.00;102445.91;5185567;28;20447;-74
2023/09/04 10:31:35;;;;;;;6.30;4.55;;;;;;;26.99;100.00;102448.78;5187248;28;20026;-73
2023/09/04 10:34:06;;;;;;;8.98;5.53;;;;;;;26.91;100.00;102440.91;5189878;28;20022;-73
2023/09/04 10:36:38;;;;;;;8.88;5.68;;;;;;;27.06;100.00;102443.16;5178663;28;20038;-73
2023/09/04 10:39:09;;;;;;;7.85;4.85;;;;;;;26.99;100.00;102442.44;5191904;28;20018;-74
2023/09/04 10:41:40;;;;;;;6.50;4.60;;;;;;;26.93;100.00;102433.22;5185385;28;20036;-74
2023/09/04 10:44:32;;;;;;;7.50;4.95;;;;;;;26.83;100.00;102432.97;5183623;28;20025;-74
2023/09/04 10:47:02;;;;;;;6.30;4.70;;;;;;;26.90;100.00;102438.38;5190242;28;20448;-73
2023/09/04 10:49:33;;;;;;;8.07;4.07;;;;;;;27.02;100.00;102437.31;5192972;28;20038;-74
2023/09/04 10:52:05;;;;;;;5.90;4.25;;;;;;;27.10;100.00;102425.97;5188962;28;20028;-74
2023/09/04 10:54:36;;;;;;;5.43;3.97;;;;;;;27.19;100.00;102426.44;5184542;28;20125;-73
2023/09/04 10:57:11;;;;;;;9.98;5.38;;;;;;;27.44;100.00;102426.19;5180174;28;20040;-74
2023/09/04 10:59:53;;;;;;;;;;;;;;;27.55;100.00;102425.34;5185943;28;20191;-74
2023/09/04 11:02:27;;;;;;;5.30;4.70;;;;;;;27.67;100.00;102425.34;5187536;28;20799;-74
2023/09/04 11:04:59;;;;;;;9.07;5.00;;;;;;;27.75;100.00;102416.69;5178995;28;20117;-74
2023/09/04 11:07:34;;;;;;;7.95;4.97;;;;;;;27.78;100.00;102418.97;5180410;28;20269;-74
2023/09/04 11:10:36;;;;;;;9.90;4.18;;;;;;;27.82;100.00;102419.34;5188342;28;20025;-74
2023/09/04 11:13:09;;;;;;;7.68;4.45;;;;;;;27.84;100.00;102414.41;5191193;28;20017;-73
2023/09/04 11:15:41;;;;;;;5.38;4.53;;;;;;;27.80;100.00;102414.06;5198367;28;20025;-73
2023/09/04 11:18:14;;;;;;;7.60;4.10;;;;;;;27.83;100.00;102415.50;5199802;28;20014;-74
2023/09/04 11:20:45;;;;;;;6.05;4.07;;;;;;;27.93;100.00;102414.88;5193903;28;20025;-74
2023/09/04 11:23:16;;;;;;;5.07;3.80;;;;;;;27.93;100.00;102412.13;5204536;28;20269;-74